createdAt,value
2022-11-06T00:00:18.849Z,23.70
2022-11-06T00:01:52.284Z,20.15
2022-11-06T00:03:25.826Z,10.68
2022-11-06T00:05:18.315Z,12.82
2022-11-06T00:06:51.415Z,10.07
2022-11-06T00:08:28.270Z,14.88
2022-11-06T00:10:01.486Z,10.10
2022-11-06T00:11:34.594Z,12.95
2022-11-06T00:13:09.235Z,12.60
2022-11-06T00:14:42.730Z,14.35
2022-11-06T00:16:16.148Z,19.27
2022-11-06T00:17:50.788Z,16.75
2022-11-06T00:19:23.895Z,15.52
2022-11-06T00:20:57.225Z,13.82
2022-11-06T00:22:33.834Z,14.77
2022-11-06T00:24:08.492Z,14.07
2022-11-06T00:25:42.999Z,16.25
2022-11-06T00:27:16.408Z,9.25
2022-11-06T00:28:51.653Z,11.57
2022-11-06T00:30:24.799Z,14.07
2022-11-06T00:31:57.969Z,22.42
2022-11-06T00:33:31.848Z,23.52
2022-11-06T00:35:05.747Z,20.83
2022-11-06T00:36:39.042Z,19.77
2022-11-06T00:38:12.531Z,16.90
2022-11-06T00:39:45.995Z,20.13
2022-11-06T00:41:19.303Z,21.65
2022-11-06T00:42:57.252Z,21.15
2022-11-06T00:44:31.905Z,22.05
2022-11-06T00:46:05.862Z,18.42
2022-11-06T00:47:39.260Z,20.63
2022-11-06T00:49:12.444Z,20.73
2022-11-06T00:50:45.694Z,22.20
2022-11-06T00:52:18.863Z,22.60
2022-11-06T00:53:56.039Z,19.30
2022-11-06T00:55:29.278Z,19.60
2022-11-06T00:57:02.398Z,17.00
2022-11-06T00:58:35.918Z,20.27
2022-11-06T01:00:12.417Z,17.50
2022-11-06T01:01:46.851Z,20.20
2022-11-06T01:03:20.183Z,19.15
2022-11-06T01:04:53.402Z,22.80
2022-11-06T01:06:28.843Z,19.33
2022-11-06T01:08:01.977Z,26.33
2022-11-06T01:09:35.172Z,17.55
2022-11-06T01:11:10.329Z,17.92
2022-11-06T01:12:43.646Z,17.00
2022-11-06T01:14:18.058Z,23.20
2022-11-06T01:15:52.700Z,20.08
2022-11-06T01:17:26.337Z,19.38
2022-11-06T01:19:00.805Z,19.55
2022-11-06T01:20:33.959Z,21.35
2022-11-06T01:22:07.302Z,23.70
2022-11-06T01:23:40.611Z,19.90
2022-11-06T01:25:14.023Z,20.95
2022-11-06T01:27:05.263Z,34.25
2022-11-06T01:28:40.103Z,36.08
2022-11-06T01:30:14.260Z,25.58
2022-11-06T01:31:50.483Z,27.20
2022-11-06T01:33:24.221Z,26.33
2022-11-06T01:34:57.728Z,29.50
2022-11-06T01:36:30.122Z,46.78
2022-11-06T01:38:03.616Z,33.08
2022-11-06T01:39:36.842Z,29.83
2022-11-06T01:41:09.317Z,30.35
2022-11-06T01:42:42.439Z,34.60
2022-11-06T01:44:48.595Z,26.67
2022-11-06T01:46:23.375Z,24.60
2022-11-06T01:47:58.321Z,20.92
2022-11-06T01:49:39.648Z,21.02
2022-11-06T01:51:14.028Z,22.70
2022-11-06T01:52:51.046Z,26.52
2022-11-06T01:54:26.687Z,29.73
2022-11-06T01:56:04.443Z,25.83
2022-11-06T01:57:36.957Z,24.95
2022-11-06T01:59:14.709Z,18.55
2022-11-06T02:00:49.673Z,22.80
2022-11-06T02:02:23.698Z,21.23
2022-11-06T02:04:04.771Z,17.33
2022-11-06T02:05:37.990Z,18.85
2022-11-06T02:07:10.824Z,21.52
2022-11-06T02:08:44.309Z,19.95
2022-11-06T02:10:17.646Z,23.27
2022-11-06T02:11:54.642Z,18.48
2022-11-06T02:13:38.833Z,18.98
2022-11-06T02:15:27.151Z,26.52
2022-11-06T02:17:05.920Z,20.65
2022-11-06T02:19:01.290Z,19.83
2022-11-06T02:20:42.634Z,21.05
2022-11-06T02:22:41.120Z,23.17
2022-11-06T02:24:42.745Z,20.25
2022-11-06T02:26:31.388Z,19.23
2022-11-06T02:28:12.844Z,24.30
2022-11-06T02:29:51.884Z,21.10
2022-11-06T02:31:29.448Z,25.90
2022-11-06T02:33:09.157Z,20.40
2022-11-06T02:34:44.368Z,26.08
2022-11-06T02:36:22.383Z,23.88
2022-11-06T02:38:01.429Z,22.30
2022-11-06T02:39:38.360Z,21.40
2022-11-06T02:41:21.319Z,21.17
2022-11-06T02:42:58.803Z,21.80
2022-11-06T02:44:37.819Z,21.40
2022-11-06T02:46:15.801Z,19.58
2022-11-06T02:47:54.590Z,27.40
2022-11-06T02:49:33.517Z,22.83
2022-11-06T02:51:09.343Z,26.38
2022-11-06T02:52:46.519Z,26.90
2022-11-06T02:54:22.867Z,29.00
2022-11-06T02:56:00.888Z,106.90
2022-11-06T02:57:38.458Z,56.97
2022-11-06T02:59:16.039Z,44.00
2022-11-06T03:00:56.686Z,61.58
2022-11-06T03:02:33.618Z,39.97
2022-11-06T03:04:14.322Z,28.65
2022-11-06T03:05:54.652Z,26.30
2022-11-06T03:07:33.102Z,37.83
2022-11-06T03:09:11.036Z,37.63
2022-11-06T03:10:47.848Z,38.17
2022-11-06T03:12:26.683Z,43.35
2022-11-06T03:14:04.903Z,32.90
2022-11-06T03:15:45.730Z,34.88
2022-11-06T03:17:24.574Z,36.08
2022-11-06T03:19:05.076Z,32.00
2022-11-06T03:20:43.197Z,26.77
2022-11-06T03:22:24.238Z,30.58
2022-11-06T03:24:00.736Z,27.13
2022-11-06T03:25:40.732Z,29.98
2022-11-06T03:27:21.189Z,24.90
2022-11-06T03:28:58.853Z,27.38
2022-11-06T03:30:36.050Z,31.50
2022-11-06T03:32:16.790Z,29.85
2022-11-06T03:33:56.280Z,31.20
2022-11-06T03:35:35.655Z,28.13
2022-11-06T03:37:15.216Z,32.25
2022-11-06T03:38:51.769Z,25.70
2022-11-06T03:40:28.433Z,28.65
2022-11-06T03:42:06.085Z,30.85
2022-11-06T03:43:42.178Z,28.13
2022-11-06T03:45:19.946Z,24.30
2022-11-06T03:46:58.994Z,29.50
2022-11-06T03:48:35.332Z,33.88
2022-11-06T03:50:17.814Z,31.27
2022-11-06T03:51:58.667Z,39.20
2022-11-06T03:53:38.156Z,34.92
2022-11-06T03:55:16.571Z,28.98
2022-11-06T03:56:55.314Z,33.97
2022-11-06T03:58:33.174Z,35.85
2022-11-06T04:00:09.201Z,32.78
2022-11-06T04:01:47.796Z,29.73
2022-11-06T04:03:26.503Z,34.25
2022-11-06T04:05:04.260Z,29.02
2022-11-06T04:06:43.942Z,35.17
2022-11-06T04:08:38.055Z,31.90
2022-11-06T04:10:30.576Z,35.40
2022-11-06T04:12:23.861Z,27.35
2022-11-06T04:14:02.170Z,37.55
2022-11-06T04:15:42.187Z,34.78
2022-11-06T04:17:17.048Z,37.30
2022-11-06T04:18:49.271Z,29.33
2022-11-06T04:20:42.372Z,39.00
2022-11-06T04:22:30.906Z,28.85
2022-11-06T04:24:28.602Z,31.80
2022-11-06T04:26:24.919Z,34.15
2022-11-06T04:28:10.142Z,32.08
2022-11-06T04:29:57.203Z,28.08
2022-11-06T04:31:38.779Z,26.23
2022-11-06T04:33:18.169Z,39.88
2022-11-06T04:35:03.288Z,35.15
2022-11-06T04:36:45.701Z,30.88
2022-11-06T04:38:28.705Z,24.73
2022-11-06T04:40:09.795Z,27.85
2022-11-06T04:41:48.716Z,19.00
2022-11-06T04:43:28.674Z,61.78
2022-11-06T04:45:07.550Z,89.82
2022-11-06T04:46:48.634Z,58.25
2022-11-06T04:48:23.613Z,28.77
2022-11-06T04:50:01.163Z,24.10
2022-11-06T04:51:38.619Z,28.27
2022-11-06T04:53:12.759Z,28.67
2022-11-06T04:54:48.244Z,27.08
2022-11-06T04:56:31.151Z,24.27
2022-11-06T04:58:07.271Z,32.60
2022-11-06T04:59:40.532Z,26.20
2022-11-06T05:01:13.820Z,28.27
2022-11-06T05:02:47.151Z,32.55
2022-11-06T05:04:21.504Z,34.38
2022-11-06T05:05:54.656Z,25.85
2022-11-06T05:07:27.958Z,26.10
2022-11-06T05:09:01.302Z,25.83
2022-11-06T05:10:35.813Z,20.73
2022-11-06T05:12:09.394Z,28.48
2022-11-06T05:13:42.523Z,29.58
2022-11-06T05:15:15.872Z,41.80
2022-11-06T05:16:49.204Z,42.00
2022-11-06T05:18:22.498Z,36.15
2022-11-06T05:19:55.612Z,50.22
2022-11-06T05:21:45.853Z,57.67
2022-11-06T05:23:17.997Z,61.25
2022-11-06T05:24:52.080Z,32.10
2022-11-06T05:26:25.955Z,38.30
2022-11-06T05:27:59.482Z,34.50
2022-11-06T05:29:32.669Z,29.35
2022-11-06T05:31:06.614Z,35.13
2022-11-06T05:32:39.865Z,36.50
2022-11-06T05:34:13.701Z,31.83
2022-11-06T05:35:46.924Z,34.00
2022-11-06T05:37:20.273Z,40.58
2022-11-06T05:38:53.521Z,39.22
2022-11-06T05:40:26.683Z,35.03
2022-11-06T05:42:01.278Z,38.70
2022-11-06T05:43:34.785Z,38.45
2022-11-06T05:45:08.912Z,345.42
2022-11-06T05:46:48.730Z,92.95
2022-11-06T05:48:23.002Z,64.45
2022-11-06T05:49:56.486Z,61.45
2022-11-06T05:51:29.617Z,43.15
2022-11-06T05:53:02.923Z,38.45
2022-11-06T05:54:36.141Z,47.70
2022-11-06T05:56:09.697Z,41.03
2022-11-06T05:57:44.501Z,45.30
2022-11-06T05:59:17.653Z,52.03
2022-11-06T06:00:50.962Z,44.38
2022-11-06T06:02:24.201Z,42.13
2022-11-06T06:03:57.478Z,50.40
2022-11-06T06:05:30.795Z,47.75
2022-11-06T06:07:03.955Z,39.47
2022-11-06T06:08:37.208Z,52.05
2022-11-06T06:10:11.251Z,44.95
2022-11-06T06:11:44.542Z,32.65
2022-11-06T06:13:19.109Z,42.13
2022-11-06T06:14:52.434Z,30.98
2022-11-06T06:16:25.599Z,36.65
2022-11-06T06:17:59.440Z,35.42
2022-11-06T06:19:32.652Z,32.80
2022-11-06T06:21:06.427Z,40.65
2022-11-06T06:22:39.627Z,39.80
2022-11-06T06:24:12.863Z,48.38
2022-11-06T06:25:46.222Z,55.10
2022-11-06T06:27:19.787Z,47.90
2022-11-06T06:28:54.380Z,54.97
2022-11-06T06:30:27.547Z,41.85
2022-11-06T06:32:00.769Z,45.70
2022-11-06T06:33:34.355Z,55.72
2022-11-06T06:35:08.011Z,63.88
2022-11-06T06:36:41.231Z,110.15
2022-11-06T06:38:14.804Z,87.70
2022-11-06T06:39:48.571Z,58.70
2022-11-06T06:41:21.781Z,45.00
2022-11-06T06:42:57.279Z,39.58
2022-11-06T06:44:31.856Z,36.00
2022-11-06T06:46:08.362Z,20.42
2022-11-06T06:47:41.792Z,34.03
2022-11-06T06:49:14.936Z,38.80
2022-11-06T06:50:48.223Z,23.90
2022-11-06T06:52:21.575Z,29.70
2022-11-06T06:53:54.680Z,28.02
2022-11-06T06:55:28.022Z,32.63
2022-11-06T06:57:01.169Z,35.40
2022-11-06T06:58:35.114Z,33.13
2022-11-06T07:00:11.055Z,35.05
2022-11-06T07:01:44.369Z,30.15
2022-11-06T07:03:17.669Z,40.03
2022-11-06T07:04:51.082Z,54.63
2022-11-06T07:06:24.644Z,69.45
2022-11-06T07:07:58.380Z,68.97
2022-11-06T07:09:32.538Z,72.60
2022-11-06T07:11:08.252Z,73.50
2022-11-06T07:12:41.409Z,75.28
2022-11-06T07:14:14.818Z,81.22
2022-11-06T07:15:49.413Z,72.70
2022-11-06T07:17:22.666Z,58.17
2022-11-06T07:18:55.876Z,50.92
2022-11-06T07:20:29.118Z,49.13
2022-11-06T07:22:02.359Z,75.80
2022-11-06T07:23:35.944Z,42.40
2022-11-06T07:25:09.969Z,47.97
2022-11-06T07:26:43.587Z,43.45
2022-11-06T07:28:16.911Z,32.00
2022-11-06T07:29:50.431Z,34.05
2022-11-06T07:31:24.990Z,42.25
2022-11-06T07:32:58.295Z,28.90
2022-11-06T07:34:31.400Z,37.72
2022-11-06T07:36:06.178Z,38.00
2022-11-06T07:37:39.383Z,34.15
2022-11-06T07:39:12.608Z,31.95
2022-11-06T07:40:45.835Z,46.78
2022-11-06T07:42:19.200Z,47.83
2022-11-06T07:44:03.983Z,39.17
2022-11-06T07:45:37.624Z,39.05
2022-11-06T07:47:12.183Z,41.65
2022-11-06T07:48:45.587Z,82.38
2022-11-06T07:50:18.761Z,38.67
2022-11-06T07:51:52.006Z,36.00
2022-11-06T07:53:25.907Z,34.13
2022-11-06T07:54:59.166Z,47.55
2022-11-06T07:56:32.796Z,39.55
2022-11-06T07:58:06.036Z,41.95
2022-11-06T07:59:39.316Z,49.90
2022-11-06T08:01:18.514Z,52.58
2022-11-06T08:02:54.490Z,37.30
2022-11-06T08:04:27.720Z,43.13
2022-11-06T08:06:03.971Z,43.25
2022-11-06T08:07:37.539Z,52.60
2022-11-06T08:09:11.033Z,49.45
2022-11-06T08:10:44.732Z,38.55
2022-11-06T08:12:17.887Z,48.63
2022-11-06T08:13:51.283Z,55.47
2022-11-06T08:15:24.450Z,47.90
2022-11-06T08:16:58.453Z,40.80
2022-11-06T08:18:33.307Z,60.35
2022-11-06T08:20:07.716Z,62.47
2022-11-06T08:21:40.977Z,51.58
2022-11-06T08:23:14.805Z,57.10
2022-11-06T08:24:48.017Z,60.72
2022-11-06T08:26:21.314Z,68.68
2022-11-06T08:27:56.083Z,86.57
2022-11-06T08:29:29.341Z,67.18
2022-11-06T08:31:05.794Z,79.70
2022-11-06T08:32:39.109Z,70.10
2022-11-06T08:34:13.810Z,26.23
2022-11-06T08:35:47.336Z,21.42
2022-11-06T08:37:21.281Z,25.38
2022-11-06T08:38:54.541Z,19.15
2022-11-06T08:40:30.953Z,20.40
2022-11-06T08:42:05.651Z,16.17
2022-11-06T08:43:39.135Z,19.77
2022-11-06T08:45:12.459Z,18.48
2022-11-06T08:46:50.773Z,13.95
2022-11-06T08:48:25.175Z,17.13
2022-11-06T08:49:59.882Z,21.85
2022-11-06T08:51:33.176Z,13.07
2022-11-06T08:53:08.158Z,15.55
2022-11-06T08:54:41.430Z,17.73
2022-11-06T08:56:15.284Z,19.15
2022-11-06T08:57:48.526Z,18.08
2022-11-06T08:59:21.746Z,14.63
2022-11-06T09:00:54.910Z,23.15
2022-11-06T09:02:28.209Z,16.27
2022-11-06T09:04:01.477Z,21.27
2022-11-06T09:05:36.176Z,18.98
2022-11-06T09:07:09.599Z,19.40
2022-11-06T09:08:42.952Z,14.77
2022-11-06T09:10:16.380Z,22.08
2022-11-06T09:11:49.492Z,18.10
2022-11-06T09:13:22.707Z,18.13
2022-11-06T09:14:55.880Z,19.80
2022-11-06T09:16:29.204Z,19.80
2022-11-06T09:18:02.685Z,20.55
2022-11-06T09:19:35.900Z,16.90
2022-11-06T09:21:10.512Z,14.00
2022-11-06T09:22:43.841Z,10.10
2022-11-06T09:24:17.031Z,13.15
2022-11-06T09:25:50.323Z,13.07
2022-11-06T09:27:23.503Z,18.55
2022-11-06T09:28:56.816Z,14.05
2022-11-06T09:30:31.640Z,13.35
2022-11-06T09:32:05.265Z,13.80
2022-11-06T09:33:38.423Z,15.75
2022-11-06T09:35:11.915Z,16.38
2022-11-06T09:36:46.723Z,20.98
2022-11-06T09:38:20.192Z,23.65
2022-11-06T09:39:53.351Z,16.40
2022-11-06T09:41:37.076Z,22.42
2022-11-06T09:43:43.247Z,15.52
2022-11-06T09:45:22.623Z,22.98
2022-11-06T09:46:58.768Z,22.00
2022-11-06T09:48:37.617Z,16.27
2022-11-06T09:50:17.190Z,18.75
2022-11-06T09:51:58.248Z,13.75
2022-11-06T09:53:35.660Z,17.52
2022-11-06T09:55:16.443Z,20.70
2022-11-06T09:56:54.183Z,23.75
2022-11-06T09:58:32.648Z,18.00
2022-11-06T10:00:08.539Z,17.83
2022-11-06T10:01:45.468Z,21.15
2022-11-06T10:03:25.219Z,20.30
2022-11-06T10:05:06.826Z,17.90
2022-11-06T10:06:40.616Z,22.98
2022-11-06T10:08:18.672Z,21.45
2022-11-06T10:09:51.939Z,17.48
2022-11-06T10:11:41.664Z,19.10
2022-11-06T10:13:24.488Z,15.63
2022-11-06T10:15:08.899Z,26.33
2022-11-06T10:16:51.153Z,19.88
2022-11-06T10:18:35.543Z,16.65
2022-11-06T10:20:20.911Z,18.65
2022-11-06T10:22:04.508Z,16.95
2022-11-06T10:23:48.062Z,17.08
2022-11-06T10:25:23.234Z,17.75
2022-11-06T10:26:58.247Z,18.80
2022-11-06T10:28:55.036Z,19.95
2022-11-06T10:30:34.834Z,16.25
2022-11-06T10:32:36.894Z,16.65
2022-11-06T10:34:14.520Z,20.40
2022-11-06T10:35:54.778Z,15.70
2022-11-06T10:37:31.297Z,16.73
2022-11-06T10:39:15.160Z,13.82
2022-11-06T10:40:50.514Z,14.68
2022-11-06T10:42:35.317Z,11.60
2022-11-06T10:44:18.337Z,10.00
2022-11-06T10:45:58.274Z,19.70
2022-11-06T10:47:35.003Z,13.82
2022-11-06T10:49:18.767Z,17.52
2022-11-06T10:51:06.031Z,11.52
2022-11-06T10:52:50.186Z,11.50
2022-11-06T10:54:36.590Z,20.80
2022-11-06T10:56:29.003Z,15.98
2022-11-06T10:58:06.198Z,21.75
2022-11-06T10:59:39.597Z,14.93
2022-11-06T11:01:15.751Z,19.38
2022-11-06T11:02:53.725Z,17.20
2022-11-06T11:04:26.899Z,24.45
2022-11-06T11:06:00.479Z,16.20
2022-11-06T11:07:36.028Z,22.77
2022-11-06T11:09:30.456Z,19.42
2022-11-06T11:11:05.834Z,21.92
2022-11-06T11:12:39.459Z,35.28
2022-11-06T11:14:24.180Z,13.38
2022-11-06T11:15:57.671Z,14.68
2022-11-06T11:17:31.134Z,7.68
2022-11-06T11:19:23.395Z,11.13
2022-11-06T11:21:07.749Z,16.45
2022-11-06T11:22:41.042Z,17.63
2022-11-06T11:24:14.429Z,13.00
2022-11-06T11:25:51.503Z,11.10
2022-11-06T11:27:24.895Z,9.98
2022-11-06T11:29:00.460Z,15.35
2022-11-06T11:30:34.018Z,13.25
2022-11-06T11:32:08.476Z,9.70
2022-11-06T11:33:44.855Z,12.80
2022-11-06T11:35:21.488Z,5.32
2022-11-06T11:37:00.437Z,8.68
2022-11-06T11:38:35.446Z,13.93
2022-11-06T11:40:31.336Z,8.40
2022-11-06T11:42:24.371Z,8.90
2022-11-06T11:43:59.260Z,10.63
2022-11-06T11:45:32.513Z,10.70
2022-11-06T11:47:22.235Z,9.82
2022-11-06T11:48:57.603Z,11.77
2022-11-06T11:50:33.087Z,16.15
2022-11-06T11:52:13.990Z,17.45
2022-11-06T11:53:47.694Z,10.13
2022-11-06T11:55:23.264Z,16.77
2022-11-06T11:57:07.377Z,10.15
2022-11-06T11:58:42.366Z,7.78
2022-11-06T12:00:19.304Z,15.48
2022-11-06T12:01:53.924Z,8.25
2022-11-06T12:03:30.202Z,9.75
2022-11-06T12:05:07.119Z,9.77
2022-11-06T12:06:51.711Z,7.20
2022-11-06T12:08:27.296Z,9.15
2022-11-06T12:10:01.518Z,14.88
2022-11-06T12:11:35.172Z,8.48
2022-11-06T12:13:16.442Z,11.82
2022-11-06T12:15:06.222Z,10.52
2022-11-06T12:16:39.476Z,11.15
2022-11-06T12:18:16.937Z,10.25
2022-11-06T12:19:54.651Z,7.35
2022-11-06T12:21:33.480Z,12.93
2022-11-06T12:23:13.424Z,8.57
2022-11-06T12:24:53.967Z,9.93
2022-11-06T12:26:33.702Z,26.48
2022-11-06T12:28:15.318Z,18.15
2022-11-06T12:29:52.934Z,10.80
2022-11-06T12:31:36.907Z,13.13
2022-11-06T12:33:16.644Z,14.80
2022-11-06T12:34:58.826Z,11.88
2022-11-06T12:36:39.524Z,18.08
2022-11-06T12:38:18.905Z,16.95
2022-11-06T12:40:00.012Z,21.02
2022-11-06T12:41:36.959Z,10.93
2022-11-06T12:43:22.655Z,13.90
2022-11-06T12:44:57.524Z,19.35
2022-11-06T12:46:42.263Z,14.32
2022-11-06T12:48:29.284Z,22.55
2022-11-06T12:50:28.274Z,21.45
2022-11-06T12:52:14.155Z,18.48
2022-11-06T12:54:02.832Z,19.13
2022-11-06T12:55:39.347Z,19.77
2022-11-06T12:57:22.940Z,25.33
2022-11-06T12:59:17.931Z,20.08
2022-11-06T13:01:04.226Z,25.38
2022-11-06T13:03:06.181Z,26.17
2022-11-06T13:04:51.784Z,35.40
2022-11-06T13:06:31.411Z,26.45
2022-11-06T13:08:17.252Z,31.92
2022-11-06T13:09:59.273Z,31.05
2022-11-06T13:11:40.722Z,26.95
2022-11-06T13:13:28.289Z,27.30
2022-11-06T13:15:16.463Z,29.48
2022-11-06T13:17:00.960Z,35.72
2022-11-06T13:18:39.943Z,65.20
2022-11-06T13:20:23.009Z,34.60
2022-11-06T13:22:09.223Z,41.40
2022-11-06T13:23:48.415Z,44.22
2022-11-06T13:25:27.107Z,47.63
2022-11-06T13:27:09.501Z,49.38
2022-11-06T13:28:46.455Z,41.25
2022-11-06T13:30:21.846Z,33.22
2022-11-06T13:32:00.776Z,34.47
2022-11-06T13:33:39.376Z,32.13
2022-11-06T13:35:16.872Z,32.85
2022-11-06T13:36:50.844Z,30.92
2022-11-06T13:38:29.862Z,32.35
2022-11-06T13:40:08.087Z,34.72
2022-11-06T13:41:41.258Z,32.15
2022-11-06T13:43:19.978Z,55.38
2022-11-06T13:44:54.640Z,39.33
2022-11-06T13:46:34.561Z,43.22
2022-11-06T13:48:21.816Z,33.47
2022-11-06T13:50:04.816Z,31.33
2022-11-06T13:51:47.142Z,30.05
2022-11-06T13:53:29.388Z,34.58
2022-11-06T13:55:13.479Z,34.75
2022-11-06T13:57:29.726Z,29.83
2022-11-06T13:59:33.959Z,38.33
2022-11-06T14:01:19.587Z,78.55
2022-11-06T14:03:31.832Z,54.10
2022-11-06T14:05:41.825Z,33.28
2022-11-06T14:07:17.566Z,33.53
2022-11-06T14:08:53.656Z,33.30
2022-11-06T14:10:34.263Z,36.13
2022-11-06T14:12:15.515Z,40.10
2022-11-06T14:14:00.602Z,36.83
2022-11-06T14:15:37.890Z,40.03
2022-11-06T14:17:14.341Z,38.17
2022-11-06T14:18:56.192Z,41.55
2022-11-06T14:20:32.736Z,44.03
2022-11-06T14:22:27.161Z,36.70
2022-11-06T14:24:06.895Z,38.15
2022-11-06T14:25:48.194Z,38.83
2022-11-06T14:27:58.678Z,39.45
2022-11-06T14:30:00.331Z,35.80
2022-11-06T14:32:02.129Z,34.45
2022-11-06T14:34:03.171Z,38.15
2022-11-06T14:35:51.782Z,39.17
2022-11-06T14:37:48.113Z,35.15
2022-11-06T14:39:59.725Z,38.80
2022-11-06T14:41:57.799Z,38.35
2022-11-06T14:43:33.657Z,50.83
2022-11-06T14:45:14.164Z,46.70
2022-11-06T14:46:51.994Z,41.67
2022-11-06T14:48:34.912Z,46.50
2022-11-06T14:50:25.715Z,40.83
2022-11-06T14:52:01.506Z,43.70
2022-11-06T14:53:40.161Z,40.45
2022-11-06T14:55:30.151Z,40.55
2022-11-06T14:57:04.271Z,45.20
2022-11-06T14:58:40.260Z,48.20
2022-11-06T15:00:36.607Z,44.97
2022-11-06T15:02:18.608Z,39.60
2022-11-06T15:03:55.383Z,41.70
2022-11-06T15:05:30.241Z,45.80
2022-11-06T15:07:12.095Z,49.75
2022-11-06T15:09:01.339Z,43.78
2022-11-06T15:10:53.198Z,50.00
2022-11-06T15:12:59.734Z,43.63
2022-11-06T15:14:56.566Z,45.15
2022-11-06T15:16:37.322Z,48.40
2022-11-06T15:18:14.266Z,52.63
2022-11-06T15:19:52.683Z,51.67
2022-11-06T15:21:32.572Z,41.53
2022-11-06T15:23:14.297Z,49.60
2022-11-06T15:24:56.251Z,50.00
2022-11-06T15:26:35.024Z,57.45
2022-11-06T15:28:14.703Z,50.35
2022-11-06T15:29:53.187Z,51.83
2022-11-06T15:31:28.979Z,53.50
2022-11-06T15:33:04.723Z,49.03
2022-11-06T15:34:41.743Z,45.35
2022-11-06T15:36:18.599Z,43.17
2022-11-06T15:37:53.699Z,51.78
2022-11-06T15:39:40.810Z,48.55
2022-11-06T15:41:19.700Z,45.58
2022-11-06T15:42:53.173Z,44.38
2022-11-06T15:44:26.997Z,55.40
2022-11-06T15:46:07.236Z,52.10
2022-11-06T15:47:40.922Z,46.35
2022-11-06T15:49:21.037Z,50.53
2022-11-06T15:50:54.382Z,60.28
2022-11-06T15:52:27.740Z,47.25
2022-11-06T15:54:00.965Z,62.17
2022-11-06T15:55:37.289Z,64.30
2022-11-06T15:57:19.421Z,61.22
2022-11-06T15:59:13.270Z,66.15
2022-11-06T16:00:47.368Z,57.28
2022-11-06T16:02:23.000Z,67.50
2022-11-06T16:03:57.107Z,64.50
2022-11-06T16:05:32.939Z,58.30
2022-11-06T16:07:06.922Z,54.63
2022-11-06T16:08:40.578Z,60.45
2022-11-06T16:10:16.479Z,57.42
2022-11-06T16:11:52.856Z,58.42
2022-11-06T16:13:28.072Z,64.13
2022-11-06T16:15:01.408Z,68.57
2022-11-06T16:16:37.819Z,69.18
2022-11-06T16:18:16.595Z,63.25
2022-11-06T16:19:51.389Z,61.58
2022-11-06T16:21:34.652Z,66.22
2022-11-06T16:23:07.870Z,60.63
2022-11-06T16:24:45.469Z,54.60
2022-11-06T16:26:24.160Z,57.70
2022-11-06T16:27:58.271Z,59.47
2022-11-06T16:29:33.305Z,57.75
2022-11-06T16:31:11.581Z,60.55
2022-11-06T16:32:44.765Z,58.65
2022-11-06T16:34:23.186Z,58.85
2022-11-06T16:36:07.987Z,61.22
2022-11-06T16:37:41.253Z,72.70
2022-11-06T16:39:48.788Z,71.65
2022-11-06T16:41:58.518Z,67.20
2022-11-06T16:43:32.095Z,107.25
2022-11-06T16:45:18.142Z,59.17
2022-11-06T16:47:17.803Z,82.30
2022-11-06T16:48:51.045Z,75.07
2022-11-06T16:50:46.330Z,76.03
2022-11-06T16:52:23.407Z,87.53
2022-11-06T16:53:58.783Z,81.45
2022-11-06T16:55:33.952Z,75.30
2022-11-06T16:57:10.955Z,79.53
2022-11-06T16:58:52.720Z,75.43
2022-11-06T17:00:29.655Z,101.22
2022-11-06T17:02:03.438Z,68.50
2022-11-06T17:03:40.859Z,80.55
2022-11-06T17:05:17.066Z,73.30
2022-11-06T17:06:51.337Z,74.15
2022-11-06T17:08:27.586Z,79.47
2022-11-06T17:10:26.586Z,62.53
2022-11-06T17:12:01.463Z,63.13
2022-11-06T17:13:35.001Z,60.38
2022-11-06T17:15:10.057Z,60.17
2022-11-06T17:16:50.878Z,63.13
2022-11-06T17:18:26.418Z,58.33
2022-11-06T17:19:59.659Z,67.95
2022-11-06T17:21:32.861Z,60.42
2022-11-06T17:23:06.423Z,63.72
2022-11-06T17:24:39.569Z,132.73
2022-11-06T17:26:20.096Z,83.78
2022-11-06T17:27:53.386Z,67.35
2022-11-06T17:29:26.761Z,63.33
2022-11-06T17:31:00.140Z,62.05
2022-11-06T17:32:34.758Z,72.88
2022-11-06T17:34:08.031Z,81.15
2022-11-06T17:35:41.498Z,77.03
2022-11-06T17:37:14.758Z,73.25
2022-11-06T17:38:49.514Z,67.28
2022-11-06T17:40:22.760Z,62.13
2022-11-06T17:41:56.251Z,64.97
2022-11-06T17:43:29.426Z,75.55
2022-11-06T17:45:02.747Z,71.22
2022-11-06T17:46:38.301Z,74.20
2022-11-06T17:48:13.931Z,75.78
2022-11-06T17:49:48.833Z,77.75
2022-11-06T17:51:40.266Z,72.95
2022-11-06T17:53:13.773Z,85.25
2022-11-06T17:54:47.120Z,67.93
2022-11-06T17:56:20.426Z,85.53
2022-11-06T17:57:53.544Z,84.78
2022-11-06T17:59:26.929Z,81.10
2022-11-06T18:01:07.262Z,72.38
2022-11-06T18:03:00.260Z,68.53
2022-11-06T18:04:35.405Z,70.45
2022-11-06T18:06:10.690Z,70.30
2022-11-06T18:07:43.936Z,70.07
2022-11-06T18:09:17.408Z,65.05
2022-11-06T18:10:55.284Z,58.08
2022-11-06T18:12:29.068Z,55.80
2022-11-06T18:14:02.366Z,63.58
2022-11-06T18:15:35.898Z,62.17
2022-11-06T18:17:09.324Z,70.60
2022-11-06T18:18:42.757Z,59.67
2022-11-06T18:20:17.338Z,62.33
2022-11-06T18:21:51.176Z,69.65
2022-11-06T18:23:24.640Z,69.70
2022-11-06T18:24:58.031Z,62.42
2022-11-06T18:26:31.448Z,66.20
2022-11-06T18:28:04.747Z,66.57
2022-11-06T18:29:38.039Z,71.72
2022-11-06T18:31:11.273Z,61.65
2022-11-06T18:32:44.508Z,73.88
2022-11-06T18:34:21.215Z,83.13
2022-11-06T18:36:00.976Z,72.88
2022-11-06T18:37:34.330Z,73.07
2022-11-06T18:39:08.974Z,66.78
2022-11-06T18:40:45.039Z,73.47
2022-11-06T18:42:22.437Z,67.53
2022-11-06T18:43:58.286Z,60.58
2022-11-06T18:45:31.571Z,65.38
2022-11-06T18:47:04.827Z,55.55
2022-11-06T18:48:38.148Z,56.20
2022-11-06T18:50:11.882Z,63.35
2022-11-06T18:51:46.574Z,60.63
2022-11-06T18:53:18.911Z,63.47
2022-11-06T18:54:55.692Z,61.05
2022-11-06T18:56:31.661Z,60.15
2022-11-06T18:58:04.884Z,60.90
2022-11-06T18:59:38.088Z,63.60
2022-11-06T19:01:13.426Z,59.15
2022-11-06T19:02:47.079Z,71.53
2022-11-06T19:04:21.904Z,74.72
2022-11-06T19:05:55.194Z,77.15
2022-11-06T19:07:30.103Z,82.57
2022-11-06T19:09:03.503Z,79.75
2022-11-06T19:10:39.043Z,69.47
2022-11-06T19:12:12.279Z,68.00
2022-11-06T19:13:48.346Z,68.82
2022-11-06T19:15:22.086Z,61.22
2022-11-06T19:16:55.407Z,51.92
2022-11-06T19:18:30.536Z,58.38
2022-11-06T19:20:04.187Z,53.35
2022-11-06T19:21:37.354Z,54.80
2022-11-06T19:23:15.461Z,68.03
2022-11-06T19:24:49.082Z,73.28
2022-11-06T19:26:30.922Z,63.47
2022-11-06T19:28:05.097Z,64.57
2022-11-06T19:29:38.382Z,71.28
2022-11-06T19:31:13.104Z,66.55
2022-11-06T19:32:46.552Z,69.78
2022-11-06T19:34:20.330Z,79.53
2022-11-06T19:35:54.765Z,80.80
2022-11-06T19:37:29.273Z,67.07
2022-11-06T19:39:04.079Z,59.50
2022-11-06T19:40:37.350Z,57.47
2022-11-06T19:42:10.761Z,56.63
2022-11-06T19:43:43.999Z,62.20
2022-11-06T19:45:17.213Z,46.00
2022-11-06T19:46:50.447Z,55.80
2022-11-06T19:48:24.481Z,48.38
2022-11-06T19:49:57.638Z,44.55
2022-11-06T19:51:31.819Z,49.13
2022-11-06T19:53:05.138Z,52.85
2022-11-06T19:54:39.935Z,48.97
2022-11-06T19:56:16.588Z,50.08
2022-11-06T19:57:50.194Z,53.17
2022-11-06T19:59:23.485Z,60.55
2022-11-06T20:00:56.700Z,71.30
2022-11-06T20:02:29.023Z,59.78
2022-11-06T20:04:02.495Z,56.80
2022-11-06T20:05:36.093Z,68.53
2022-11-06T20:07:10.029Z,58.53
2022-11-06T20:08:43.595Z,58.35
2022-11-06T20:10:18.430Z,53.10
2022-11-06T20:11:52.901Z,52.78
2022-11-06T20:13:26.300Z,60.75
2022-11-06T20:14:59.543Z,51.15
2022-11-06T20:16:32.844Z,57.70
2022-11-06T20:18:06.481Z,62.63
2022-11-06T20:19:39.710Z,56.58
2022-11-06T20:21:13.773Z,61.20
2022-11-06T20:22:47.603Z,55.78
2022-11-06T20:24:20.795Z,68.00
2022-11-06T20:25:55.456Z,56.33
2022-11-06T20:27:28.702Z,59.53
2022-11-06T20:29:02.236Z,52.08
2022-11-06T20:30:35.427Z,61.60
2022-11-06T20:32:09.742Z,58.28
2022-11-06T20:33:43.092Z,59.80
2022-11-06T20:35:18.343Z,61.28
2022-11-06T20:36:51.582Z,60.83
2022-11-06T20:38:25.998Z,58.40
2022-11-06T20:39:59.325Z,63.30
2022-11-06T20:41:34.276Z,60.70
2022-11-06T20:43:07.694Z,67.72
2022-11-06T20:44:41.225Z,60.20
2022-11-06T20:46:16.675Z,58.67
2022-11-06T20:47:50.226Z,62.53
2022-11-06T20:49:23.464Z,60.58
2022-11-06T20:51:01.123Z,65.90
2022-11-06T20:52:34.344Z,64.60
2022-11-06T20:54:07.964Z,62.75
2022-11-06T20:55:41.159Z,60.42
2022-11-06T20:57:16.219Z,68.68
2022-11-06T20:58:49.880Z,59.92